Bl Darnell — WDE5130 — position and weather

sailwx.info

Track history (hours):
 
Tides and Currents Weather Stations Pressure Air Temp Water Temp Dewpoint Dewpoint Depression Visibility Wind Speed Wind Dir Waves Ship Positions

Bl Darnell

Owner: The Tug BL Darnell, L.L.C., Channelview, TX. More information available from US FCC via Universal Licensing System and Coast Guard Vessel Documentation Center.

Last reported at 2018-Jun-20 01:43 UTC. Time now 2018-Jun-20 09:36 UTC.
Position N 29°44' W 095°01'.

Length 22 m.

Type: Other ship. MMSI: 367362460.

Date/timePositionNaut miles runAvg speedWind from/ knotsBaromVisibWave heightAir tempDewpointWater temp
2018-Jun-20 01:43N 29°44' W 095°01'0 0.0
2018-Jun-20 01:30N 29°44' W 095°01'0 0.0
2018-Jun-18 18:40N 29°44' W 095°01'0 0.0
2018-Jun-18 18:27N 29°44' W 095°01'0 0.0
2018-Jun-18 17:58N 29°44' W 095°01'0 0.0
2018-Jun-18 16:18N 29°44' W 095°01'0 0.0
2018-Jun-18 15:14N 29°44' W 095°01'0 0.0
2018-Jun-18 14:58N 29°44' W 095°01'0 0.0
2018-Jun-18 14:26N 29°44' W 095°01'0 0.0
2018-Jun-18 13:58N 29°44' W 095°01'0 0.0
2018-Jun-18 12:53N 29°44' W 095°01'0 0.0
2018-Jun-18 11:08N 29°44' W 095°01'0 0.0
2018-Jun-18 11:00N 29°44' W 095°01'0 0.0
2018-Jun-18 10:05N 29°44' W 095°01'  
2018-Jun-16 03:09N 29°44' W 095°08'4 0.2
2018-Jun-15 01:33N 29°47' W 095°04'4 2.4
2018-Jun-14 23:54N 29°44' W 095°02'2 5.0
2018-Jun-14 23:29N 29°42' W 095°00'3 5.2
2018-Jun-14 23:00N 29°40' W 094°59'3 6.1
2018-Jun-14 22:31N 29°37' W 094°57'3 5.1
2018-Jun-14 22:01N 29°37' W 095°00'0 0.1
2018-Jun-14 21:30N 29°37' W 095°00'0 0.0
2018-Jun-14 21:01N 29°37' W 095°00'0 0.1
2018-Jun-14 20:31N 29°37' W 095°00'0 0.0
2018-Jun-14 20:01N 29°37' W 095°00'0 0.0
2018-Jun-14 19:30N 29°37' W 095°00'0 0.0
2018-Jun-14 19:00N 29°37' W 095°00'0 0.0
2018-Jun-14 18:30N 29°37' W 095°00'0 0.0
2018-Jun-14 18:00N 29°37' W 095°00'0 0.0
2018-Jun-14 17:31N 29°37' W 095°00'0 0.0
2018-Jun-14 17:01N 29°37' W 095°00'0 0.0
2018-Jun-14 16:31N 29°37' W 095°00'0 0.0
2018-Jun-14 16:01N 29°37' W 095°00'0 0.0
2018-Jun-14 15:31N 29°37' W 095°00'0 0.0
2018-Jun-14 15:01N 29°37' W 095°00'0 0.0
2018-Jun-14 14:31N 29°37' W 095°00'0 0.0
2018-Jun-14 14:01N 29°37' W 095°00'0 0.0
2018-Jun-14 13:30N 29°37' W 095°00'0 0.0
2018-Jun-14 13:00N 29°37' W 095°00'0 0.0
2018-Jun-14 12:30N 29°37' W 095°00'0 0.1
2018-Jun-14 12:00N 29°37' W 095°00'0 0.0
2018-Jun-14 11:31N 29°37' W 095°00'0 0.0
2018-Jun-14 10:59N 29°37' W 095°00'0 0.0
2018-Jun-14 10:31N 29°37' W 095°00'0 0.0
2018-Jun-14 09:59N 29°37' W 095°00'0 0.0
2018-Jun-14 09:30N 29°37' W 095°00'0 0.0
2018-Jun-14 09:00N 29°37' W 095°00'0 0.0
2018-Jun-14 08:30N 29°37' W 095°00'0 0.0
2018-Jun-14 07:59N 29°37' W 095°00'0 0.0
2018-Jun-14 07:29N 29°37' W 095°00'0 0.0
2018-Jun-14 06:58N 29°37' W 095°00'0 0.0
2018-Jun-14 06:30N 29°37' W 095°00'0 0.0
2018-Jun-14 06:01N 29°37' W 095°00'0 0.0
2018-Jun-14 05:30N 29°37' W 095°00'0 0.0
2018-Jun-14 05:00N 29°37' W 095°00'0 0.6
2018-Jun-14 04:31N 29°37' W 095°00'2 4.3
2018-Jun-14 04:00N 29°38' W 094°58'4 7.6
2018-Jun-14 03:31N 29°41' W 094°59'3 6.7
2018-Jun-14 03:00N 29°44' W 095°02'3 6.7
2018-Jun-14 02:30N 29°46' W 095°05'2 2.7
2018-Jun-14 01:55N 29°47' W 095°04'0 0.0
2018-Jun-14 01:29N 29°47' W 095°04'0 0.0
2018-Jun-14 01:00N 29°47' W 095°04'4 0.2
2018-Jun-13 02:54N 29°44' W 095°07'3 6.6
2018-Jun-13 02:28N 29°46' W 095°05'5 2.5
2018-Jun-13 00:32N 29°42' W 095°01'0 5.6
2018-Jun-13 00:28N 29°42' W 095°01'3 5.1
2018-Jun-12 23:57N 29°40' W 094°59'2 5.4
2018-Jun-12 23:30N 29°38' W 094°58'2 3.5
2018-Jun-12 23:01N 29°37' W 094°59'1 2.4
2018-Jun-12 22:31N 29°37' W 095°01'0 0.0
2018-Jun-12 22:01N 29°37' W 095°01'0 0.0
2018-Jun-12 21:30N 29°37' W 095°01'0 0.0
2018-Jun-12 21:00N 29°37' W 095°01'0 0.0
2018-Jun-12 20:30N 29°37' W 095°01'0 0.0
2018-Jun-12 19:59N 29°37' W 095°01'0 0.0
2018-Jun-12 19:30N 29°37' W 095°01'0 0.0
2018-Jun-12 19:01N 29°37' W 095°01'0 0.0
2018-Jun-12 18:31N 29°37' W 095°01'0 0.0
2018-Jun-12 18:01N 29°37' W 095°01'0 0.0
2018-Jun-12 17:30N 29°37' W 095°01'0 0.0
2018-Jun-12 17:01N 29°37' W 095°01'0 0.0
2018-Jun-12 16:30N 29°37' W 095°01'0 0.0
2018-Jun-12 16:00N 29°37' W 095°01'0 0.0
2018-Jun-12 15:30N 29°37' W 095°01'0 0.0
2018-Jun-12 15:01N 29°37' W 095°01'0 0.0
2018-Jun-12 14:31N 29°37' W 095°01'0 0.0
2018-Jun-12 14:00N 29°37' W 095°01'0 0.0
2018-Jun-12 13:31N 29°37' W 095°01'0 0.1
2018-Jun-12 13:00N 29°37' W 095°01'0 0.0
2018-Jun-12 12:31N 29°37' W 095°01'0 0.0
2018-Jun-12 12:01N 29°37' W 095°01'0 0.0
2018-Jun-12 11:29N 29°37' W 095°01'0 0.0
2018-Jun-12 11:01N 29°37' W 095°01'0 0.0
2018-Jun-12 10:31N 29°37' W 095°01'0 0.0
2018-Jun-12 10:00N 29°37' W 095°01'0 0.0
2018-Jun-12 09:30N 29°37' W 095°01'0 0.0
2018-Jun-12 09:00N 29°37' W 095°01'0 0.0
2018-Jun-12 08:31N 29°37' W 095°01'0 0.0
2018-Jun-12 08:00N 29°37' W 095°01'0 0.0
2018-Jun-12 07:30N 29°37' W 095°01'0 0.0
2018-Jun-12 06:59N 29°37' W 095°01'0 0.0
2018-Jun-12 06:31N 29°37' W 095°01'0 0.0
2018-Jun-12 06:00N 29°37' W 095°01'0 0.8
2018-Jun-12 05:31N 29°37' W 095°00'2 4.5
2018-Jun-12 05:00N 29°37' W 094°57'2 4.3
2018-Jun-12 04:30N 29°39' W 094°58'3 5.3
2018-Jun-12 04:01N 29°41' W 094°59'3 0.8
2018-Jun-11 23:53N 29°44' W 095°02'2 5.6
2018-Jun-11 23:29N 29°42' W 095°00'3 5.3
2018-Jun-11 23:01N 29°41' W 094°57'2 0.4
2018-Jun-11 17:23N 29°43' W 094°56'0 0.0
2018-Jun-11 16:31N 29°43' W 094°56'0 0.0
2018-Jun-11 16:28N 29°43' W 094°56'0 0.0
2018-Jun-11 15:59N 29°43' W 094°56'0 0.0
2018-Jun-11 15:23N 29°43' W 094°56'1 0.9
2018-Jun-11 14:04N 29°42' W 094°55'0 3.1
2018-Jun-11 13:56N 29°42' W 094°55'1 2.8
2018-Jun-11 13:25N 29°41' W 094°56'2 3.7
2018-Jun-11 12:58N 29°41' W 094°58'8 0.8
2018-Jun-11 01:53N 29°46' W 095°06'  
Track history (hours):
 
Tides and Currents Weather Stations Pressure Air Temp Water Temp Dewpoint Dewpoint Depression Visibility Wind Speed Wind Dir Waves Ship Positions

Bl Darnell

Owner: The Tug BL Darnell, L.L.C., Channelview, TX. More information available from US FCC via Universal Licensing System and Coast Guard Vessel Documentation Center.

Last reported at 2018-Jun-20 01:43 UTC. Time now 2018-Jun-20 09:36 UTC.
Position N 29°44' W 095°01'.

Length 22 m.

Type: Other ship. MMSI: 367362460.

Date/timePositionNaut miles runAvg speedWind from/ knotsBaromVisibWave heightAir tempDewpointWater temp
2018-Jun-20 01:43N 29°44' W 095°01'0 0.0
2018-Jun-20 01:30N 29°44' W 095°01'0 0.0
2018-Jun-18 18:40N 29°44' W 095°01'0 0.0
2018-Jun-18 18:27N 29°44' W 095°01'0 0.0
2018-Jun-18 17:58N 29°44' W 095°01'0 0.0
2018-Jun-18 16:18N 29°44' W 095°01'0 0.0
2018-Jun-18 15:14N 29°44' W 095°01'0 0.0
2018-Jun-18 14:58N 29°44' W 095°01'0 0.0
2018-Jun-18 14:26N 29°44' W 095°01'0 0.0
2018-Jun-18 13:58N 29°44' W 095°01'0 0.0
2018-Jun-18 12:53N 29°44' W 095°01'0 0.0
2018-Jun-18 11:08N 29°44' W 095°01'0 0.0
2018-Jun-18 11:00N 29°44' W 095°01'0 0.0
2018-Jun-18 10:05N 29°44' W 095°01'  
2018-Jun-16 03:09N 29°44' W 095°08'4 0.2
2018-Jun-15 01:33N 29°47' W 095°04'4 2.4
2018-Jun-14 23:54N 29°44' W 095°02'2 5.0
2018-Jun-14 23:29N 29°42' W 095°00'3 5.2
2018-Jun-14 23:00N 29°40' W 094°59'3 6.1
2018-Jun-14 22:31N 29°37' W 094°57'3 5.1
2018-Jun-14 22:01N 29°37' W 095°00'0 0.1
2018-Jun-14 21:30N 29°37' W 095°00'0 0.0
2018-Jun-14 21:01N 29°37' W 095°00'0 0.1
2018-Jun-14 20:31N 29°37' W 095°00'0 0.0
2018-Jun-14 20:01N 29°37' W 095°00'0 0.0
2018-Jun-14 19:30N 29°37' W 095°00'0 0.0
2018-Jun-14 19:00N 29°37' W 095°00'0 0.0
2018-Jun-14 18:30N 29°37' W 095°00'0 0.0
2018-Jun-14 18:00N 29°37' W 095°00'0 0.0
2018-Jun-14 17:31N 29°37' W 095°00'0 0.0
2018-Jun-14 17:01N 29°37' W 095°00'0 0.0
2018-Jun-14 16:31N 29°37' W 095°00'0 0.0
2018-Jun-14 16:01N 29°37' W 095°00'0 0.0
2018-Jun-14 15:31N 29°37' W 095°00'0 0.0
2018-Jun-14 15:01N 29°37' W 095°00'0 0.0
2018-Jun-14 14:31N 29°37' W 095°00'0 0.0
2018-Jun-14 14:01N 29°37' W 095°00'0 0.0
2018-Jun-14 13:30N 29°37' W 095°00'0 0.0
2018-Jun-14 13:00N 29°37' W 095°00'0 0.0
2018-Jun-14 12:30N 29°37' W 095°00'0 0.1
2018-Jun-14 12:00N 29°37' W 095°00'0 0.0
2018-Jun-14 11:31N 29°37' W 095°00'0 0.0
2018-Jun-14 10:59N 29°37' W 095°00'0 0.0
2018-Jun-14 10:31N 29°37' W 095°00'0 0.0
2018-Jun-14 09:59N 29°37' W 095°00'0 0.0
2018-Jun-14 09:30N 29°37' W 095°00'0 0.0
2018-Jun-14 09:00N 29°37' W 095°00'0 0.0
2018-Jun-14 08:30N 29°37' W 095°00'0 0.0
2018-Jun-14 07:59N 29°37' W 095°00'0 0.0
2018-Jun-14 07:29N 29°37' W 095°00'0 0.0
2018-Jun-14 06:58N 29°37' W 095°00'0 0.0
2018-Jun-14 06:30N 29°37' W 095°00'0 0.0
2018-Jun-14 06:01N 29°37' W 095°00'0 0.0
2018-Jun-14 05:30N 29°37' W 095°00'0 0.0
2018-Jun-14 05:00N 29°37' W 095°00'0 0.6
2018-Jun-14 04:31N 29°37' W 095°00'2 4.3
2018-Jun-14 04:00N 29°38' W 094°58'4 7.6
2018-Jun-14 03:31N 29°41' W 094°59'3 6.7
2018-Jun-14 03:00N 29°44' W 095°02'3 6.7
2018-Jun-14 02:30N 29°46' W 095°05'2 2.7
2018-Jun-14 01:55N 29°47' W 095°04'0 0.0
2018-Jun-14 01:29N 29°47' W 095°04'0 0.0
2018-Jun-14 01:00N 29°47' W 095°04'4 0.2
2018-Jun-13 02:54N 29°44' W 095°07'3 6.6
2018-Jun-13 02:28N 29°46' W 095°05'5 2.5
2018-Jun-13 00:32N 29°42' W 095°01'0 5.6
2018-Jun-13 00:28N 29°42' W 095°01'3 5.1
2018-Jun-12 23:57N 29°40' W 094°59'2 5.4
2018-Jun-12 23:30N 29°38' W 094°58'2 3.5
2018-Jun-12 23:01N 29°37' W 094°59'1 2.4
2018-Jun-12 22:31N 29°37' W 095°01'0 0.0
2018-Jun-12 22:01N 29°37' W 095°01'0 0.0
2018-Jun-12 21:30N 29°37' W 095°01'0 0.0
2018-Jun-12 21:00N 29°37' W 095°01'0 0.0
2018-Jun-12 20:30N 29°37' W 095°01'0 0.0
2018-Jun-12 19:59N 29°37' W 095°01'0 0.0
2018-Jun-12 19:30N 29°37' W 095°01'0 0.0
2018-Jun-12 19:01N 29°37' W 095°01'0 0.0
2018-Jun-12 18:31N 29°37' W 095°01'0 0.0
2018-Jun-12 18:01N 29°37' W 095°01'0 0.0
2018-Jun-12 17:30N 29°37' W 095°01'0 0.0
2018-Jun-12 17:01N 29°37' W 095°01'0 0.0
2018-Jun-12 16:30N 29°37' W 095°01'0 0.0
2018-Jun-12 16:00N 29°37' W 095°01'0 0.0
2018-Jun-12 15:30N 29°37' W 095°01'0 0.0
2018-Jun-12 15:01N 29°37' W 095°01'0 0.0
2018-Jun-12 14:31N 29°37' W 095°01'0 0.0
2018-Jun-12 14:00N 29°37' W 095°01'0 0.0
2018-Jun-12 13:31N 29°37' W 095°01'0 0.1
2018-Jun-12 13:00N 29°37' W 095°01'0 0.0
2018-Jun-12 12:31N 29°37' W 095°01'0 0.0
2018-Jun-12 12:01N 29°37' W 095°01'0 0.0
2018-Jun-12 11:29N 29°37' W 095°01'0 0.0
2018-Jun-12 11:01N 29°37' W 095°01'0 0.0
2018-Jun-12 10:31N 29°37' W 095°01'0 0.0
2018-Jun-12 10:00N 29°37' W 095°01'0 0.0
2018-Jun-12 09:30N 29°37' W 095°01'0 0.0
2018-Jun-12 09:00N 29°37' W 095°01'0 0.0
2018-Jun-12 08:31N 29°37' W 095°01'0 0.0
2018-Jun-12 08:00N 29°37' W 095°01'0 0.0
2018-Jun-12 07:30N 29°37' W 095°01'0 0.0
2018-Jun-12 06:59N 29°37' W 095°01'0 0.0
2018-Jun-12 06:31N 29°37' W 095°01'0 0.0
2018-Jun-12 06:00N 29°37' W 095°01'0 0.8
2018-Jun-12 05:31N 29°37' W 095°00'2 4.5
2018-Jun-12 05:00N 29°37' W 094°57'2 4.3
2018-Jun-12 04:30N 29°39' W 094°58'3 5.3
2018-Jun-12 04:01N 29°41' W 094°59'3 0.8
2018-Jun-11 23:53N 29°44' W 095°02'2 5.6
2018-Jun-11 23:29N 29°42' W 095°00'3 5.3
2018-Jun-11 23:01N 29°41' W 094°57'2 0.4
2018-Jun-11 17:23N 29°43' W 094°56'0 0.0
2018-Jun-11 16:31N 29°43' W 094°56'0 0.0
2018-Jun-11 16:28N 29°43' W 094°56'0 0.0
2018-Jun-11 15:59N 29°43' W 094°56'0 0.0
2018-Jun-11 15:23N 29°43' W 094°56'1 0.9
2018-Jun-11 14:04N 29°42' W 094°55'0 3.1
2018-Jun-11 13:56N 29°42' W 094°55'1 2.8
2018-Jun-11 13:25N 29°41' W 094°56'2 3.7
2018-Jun-11 12:58N 29°41' W 094°58'8 0.8
2018-Jun-11 01:53N 29°46' W 095°06'  

Dump ship's entire track history